sensor_id;sensor_type;location;lat;lon;timestamp;temperature;humidity
45969;DHT22;31676;40.444;-3.668;2023-01-16T00:01:47;21.60;77.30
45969;DHT22;31676;40.444;-3.668;2023-01-16T00:04:12;21.60;77.40
45969;DHT22;31676;40.444;-3.668;2023-01-16T00:06:38;21.60;77.40
45969;DHT22;31676;40.444;-3.668;2023-01-16T00:09:05;21.50;77.30
45969;DHT22;31676;40.444;-3.668;2023-01-16T00:11:30;21.50;77.30
45969;DHT22;31676;40.444;-3.668;2023-01-16T00:13:56;21.50;77.30
45969;DHT22;31676;40.444;-3.668;2023-01-16T00:16:22;21.50;77.30
45969;DHT22;31676;40.444;-3.668;2023-01-16T00:18:48;21.60;77.40
45969;DHT22;31676;40.444;-3.668;2023-01-16T00:21:14;21.50;77.30
45969;DHT22;31676;40.444;-3.668;2023-01-16T00:23:40;21.50;77.30
45969;DHT22;31676;40.444;-3.668;2023-01-16T00:26:06;21.60;77.40
45969;DHT22;31676;40.444;-3.668;2023-01-16T00:28:32;21.50;77.30
45969;DHT22;31676;40.444;-3.668;2023-01-16T00:30:58;21.50;77.30
45969;DHT22;31676;40.444;-3.668;2023-01-16T00:33:23;21.50;77.30
45969;DHT22;31676;40.444;-3.668;2023-01-16T00:35:50;21.50;77.30
45969;DHT22;31676;40.444;-3.668;2023-01-16T00:38:16;21.50;77.50
45969;DHT22;31676;40.444;-3.668;2023-01-16T00:40:42;21.50;77.30
45969;DHT22;31676;40.444;-3.668;2023-01-16T00:43:07;21.50;77.30
45969;DHT22;31676;40.444;-3.668;2023-01-16T00:45:33;21.50;77.30
45969;DHT22;31676;40.444;-3.668;2023-01-16T00:47:59;21.50;77.30
45969;DHT22;31676;40.444;-3.668;2023-01-16T00:50:24;21.50;77.30
45969;DHT22;31676;40.444;-3.668;2023-01-16T00:52:50;21.50;77.40
45969;DHT22;31676;40.444;-3.668;2023-01-16T00:55:16;21.50;77.40
45969;DHT22;31676;40.444;-3.668;2023-01-16T00:57:42;21.50;77.40
45969;DHT22;31676;40.444;-3.668;2023-01-16T01:00:07;21.50;77.40
45969;DHT22;31676;40.444;-3.668;2023-01-16T01:02:33;21.50;77.40
45969;DHT22;31676;40.444;-3.668;2023-01-16T01:04:59;21.50;77.40
45969;DHT22;31676;40.444;-3.668;2023-01-16T01:07:25;21.50;77.40
45969;DHT22;31676;40.444;-3.668;2023-01-16T01:09:50;21.50;77.40
45969;DHT22;31676;40.444;-3.668;2023-01-16T01:12:16;21.50;77.40
45969;DHT22;31676;40.444;-3.668;2023-01-16T01:14:42;21.50;77.40
45969;DHT22;31676;40.444;-3.668;2023-01-16T01:17:07;21.50;77.40
45969;DHT22;31676;40.444;-3.668;2023-01-16T01:19:33;21.50;77.40
45969;DHT22;31676;40.444;-3.668;2023-01-16T01:21:59;21.50;77.40
45969;DHT22;31676;40.444;-3.668;2023-01-16T01:24:25;21.50;77.40
45969;DHT22;31676;40.444;-3.668;2023-01-16T01:26:50;21.50;77.40
45969;DHT22;31676;40.444;-3.668;2023-01-16T01:29:16;21.50;77.40
45969;DHT22;31676;40.444;-3.668;2023-01-16T01:31:42;21.40;77.30
45969;DHT22;31676;40.444;-3.668;2023-01-16T01:34:07;21.50;77.40
45969;DHT22;31676;40.444;-3.668;2023-01-16T01:36:33;21.50;77.40
45969;DHT22;31676;40.444;-3.668;2023-01-16T01:38:59;21.50;77.40
45969;DHT22;31676;40.444;-3.668;2023-01-16T01:41:24;21.50;77.40
45969;DHT22;31676;40.444;-3.668;2023-01-16T01:43:54;21.50;77.40
45969;DHT22;31676;40.444;-3.668;2023-01-16T01:49:06;21.50;77.40
45969;DHT22;31676;40.444;-3.668;2023-01-16T01:51:37;21.50;77.40
45969;DHT22;31676;40.444;-3.668;2023-01-16T01:54:05;21.50;77.40
45969;DHT22;31676;40.444;-3.668;2023-01-16T01:56:33;21.40;77.30
45969;DHT22;31676;40.444;-3.668;2023-01-16T01:59:02;21.50;77.40
45969;DHT22;31676;40.444;-3.668;2023-01-16T02:01:31;21.50;77.50
45969;DHT22;31676;40.444;-3.668;2023-01-16T02:03:58;21.40;77.30
45969;DHT22;31676;40.444;-3.668;2023-01-16T02:06:27;21.40;77.40
45969;DHT22;31676;40.444;-3.668;2023-01-16T02:08:54;21.50;77.40
45969;DHT22;31676;40.444;-3.668;2023-01-16T02:11:23;21.40;77.30
45969;DHT22;31676;40.444;-3.668;2023-01-16T02:13:55;21.40;77.40
45969;DHT22;31676;40.444;-3.668;2023-01-16T02:16:22;21.50;77.50
45969;DHT22;31676;40.444;-3.668;2023-01-16T02:19:07;21.40;77.40
45969;DHT22;31676;40.444;-3.668;2023-01-16T02:21:51;21.40;77.40
45969;DHT22;31676;40.444;-3.668;2023-01-16T02:38:07;21.40;77.40
45969;DHT22;31676;40.444;-3.668;2023-01-16T02:40:55;21.40;77.40
45969;DHT22;31676;40.444;-3.668;2023-01-16T02:48:27;21.40;77.50
45969;DHT22;31676;40.444;-3.668;2023-01-16T02:51:20;21.40;77.40
45969;DHT22;31676;40.444;-3.668;2023-01-16T02:53:51;21.40;77.40
45969;DHT22;31676;40.444;-3.668;2023-01-16T02:56:27;21.40;77.40
45969;DHT22;31676;40.444;-3.668;2023-01-16T02:58:55;21.40;77.40
45969;DHT22;31676;40.444;-3.668;2023-01-16T03:01:21;21.40;77.40
45969;DHT22;31676;40.444;-3.668;2023-01-16T03:17:08;21.40;77.40
45969;DHT22;31676;40.444;-3.668;2023-01-16T03:24:42;21.40;77.50
45969;DHT22;31676;40.444;-3.668;2023-01-16T03:27:20;21.40;77.50
45969;DHT22;31676;40.444;-3.668;2023-01-16T03:32:17;21.40;77.40
45969;DHT22;31676;40.444;-3.668;2023-01-16T03:39:45;21.40;77.40
45969;DHT22;31676;40.444;-3.668;2023-01-16T03:42:16;21.40;77.50
45969;DHT22;31676;40.444;-3.668;2023-01-16T03:44:46;21.40;77.50
45969;DHT22;31676;40.444;-3.668;2023-01-16T03:47:16;21.40;77.50
45969;DHT22;31676;40.444;-3.668;2023-01-16T03:49:46;21.40;77.50
45969;DHT22;31676;40.444;-3.668;2023-01-16T03:52:14;21.40;77.50
45969;DHT22;31676;40.444;-3.668;2023-01-16T03:54:56;21.40;77.50
45969;DHT22;31676;40.444;-3.668;2023-01-16T03:57:25;21.40;77.50
45969;DHT22;31676;40.444;-3.668;2023-01-16T03:59:52;21.40;77.50
45969;DHT22;31676;40.444;-3.668;2023-01-16T04:02:53;21.40;77.50
45969;DHT22;31676;40.444;-3.668;2023-01-16T04:05:14;21.40;77.50
45969;DHT22;31676;40.444;-3.668;2023-01-16T04:07:58;21.40;77.50
45969;DHT22;31676;40.444;-3.668;2023-01-16T04:10:27;21.40;77.50
45969;DHT22;31676;40.444;-3.668;2023-01-16T04:12:58;21.40;77.50
45969;DHT22;31676;40.444;-3.668;2023-01-16T04:15:25;21.40;77.50
45969;DHT22;31676;40.444;-3.668;2023-01-16T04:17:52;21.40;77.50
45969;DHT22;31676;40.444;-3.668;2023-01-16T04:20:18;21.40;77.50
45969;DHT22;31676;40.444;-3.668;2023-01-16T04:22:48;21.40;77.50
45969;DHT22;31676;40.444;-3.668;2023-01-16T04:25:14;21.40;77.50
45969;DHT22;31676;40.444;-3.668;2023-01-16T04:27:40;21.40;77.50
45969;DHT22;31676;40.444;-3.668;2023-01-16T04:30:06;21.40;77.50
45969;DHT22;31676;40.444;-3.668;2023-01-16T04:32:32;21.40;77.50
45969;DHT22;31676;40.444;-3.668;2023-01-16T04:34:58;21.40;77.50
45969;DHT22;31676;40.444;-3.668;2023-01-16T04:37:23;21.40;77.50
45969;DHT22;31676;40.444;-3.668;2023-01-16T04:39:49;21.40;77.50
45969;DHT22;31676;40.444;-3.668;2023-01-16T04:42:15;21.40;77.50
45969;DHT22;31676;40.444;-3.668;2023-01-16T04:44:41;21.30;77.40
45969;DHT22;31676;40.444;-3.668;2023-01-16T04:47:07;21.30;77.40
45969;DHT22;31676;40.444;-3.668;2023-01-16T04:49:33;21.40;77.50
45969;DHT22;31676;40.444;-3.668;2023-01-16T04:51:58;21.30;77.40
45969;DHT22;31676;40.444;-3.668;2023-01-16T04:54:24;21.30;77.40
45969;DHT22;31676;40.444;-3.668;2023-01-16T04:56:50;21.30;77.50
45969;DHT22;31676;40.444;-3.668;2023-01-16T04:59:16;21.30;77.50
45969;DHT22;31676;40.444;-3.668;2023-01-16T05:01:41;21.30;77.50
45969;DHT22;31676;40.444;-3.668;2023-01-16T05:04:08;21.30;77.50
45969;DHT22;31676;40.444;-3.668;2023-01-16T05:06:34;21.30;77.50
45969;DHT22;31676;40.444;-3.668;2023-01-16T05:09:00;21.40;77.50
45969;DHT22;31676;40.444;-3.668;2023-01-16T05:11:26;21.30;77.50
45969;DHT22;31676;40.444;-3.668;2023-01-16T05:13:52;21.30;77.50
45969;DHT22;31676;40.444;-3.668;2023-01-16T05:16:18;21.30;77.50
45969;DHT22;31676;40.444;-3.668;2023-01-16T05:18:43;21.30;77.50
45969;DHT22;31676;40.444;-3.668;2023-01-16T05:21:09;21.30;77.50
45969;DHT22;31676;40.444;-3.668;2023-01-16T05:23:35;21.30;77.50
45969;DHT22;31676;40.444;-3.668;2023-01-16T05:26:02;21.30;77.50
45969;DHT22;31676;40.444;-3.668;2023-01-16T05:28:29;21.30;77.50
45969;DHT22;31676;40.444;-3.668;2023-01-16T05:30:54;21.30;77.50
45969;DHT22;31676;40.444;-3.668;2023-01-16T05:33:20;21.30;77.50
45969;DHT22;31676;40.444;-3.668;2023-01-16T05:35:46;21.30;77.50
45969;DHT22;31676;40.444;-3.668;2023-01-16T05:38:12;21.30;77.50
45969;DHT22;31676;40.444;-3.668;2023-01-16T05:40:38;21.30;77.50
45969;DHT22;31676;40.444;-3.668;2023-01-16T05:43:04;21.30;77.50
45969;DHT22;31676;40.444;-3.668;2023-01-16T05:45:30;21.30;77.50
45969;DHT22;31676;40.444;-3.668;2023-01-16T05:47:55;21.30;77.50
45969;DHT22;31676;40.444;-3.668;2023-01-16T05:50:21;21.30;77.50
45969;DHT22;31676;40.444;-3.668;2023-01-16T05:52:47;21.30;77.50
45969;DHT22;31676;40.444;-3.668;2023-01-16T05:55:12;21.30;77.50
45969;DHT22;31676;40.444;-3.668;2023-01-16T05:57:38;21.30;77.50
45969;DHT22;31676;40.444;-3.668;2023-01-16T06:00:04;21.30;77.50
45969;DHT22;31676;40.444;-3.668;2023-01-16T06:02:30;21.30;77.50
45969;DHT22;31676;40.444;-3.668;2023-01-16T06:04:55;21.30;77.50
45969;DHT22;31676;40.444;-3.668;2023-01-16T06:07:21;21.30;77.50
45969;DHT22;31676;40.444;-3.668;2023-01-16T06:09:47;21.30;77.50
45969;DHT22;31676;40.444;-3.668;2023-01-16T06:12:13;21.30;77.50
45969;DHT22;31676;40.444;-3.668;2023-01-16T06:14:39;21.20;77.50
45969;DHT22;31676;40.444;-3.668;2023-01-16T06:17:05;21.30;77.50
45969;DHT22;31676;40.444;-3.668;2023-01-16T06:19:31;21.30;77.50
45969;DHT22;31676;40.444;-3.668;2023-01-16T06:21:56;21.20;77.50
45969;DHT22;31676;40.444;-3.668;2023-01-16T06:24:22;21.20;77.50
45969;DHT22;31676;40.444;-3.668;2023-01-16T06:26:48;21.20;77.50
45969;DHT22;31676;40.444;-3.668;2023-01-16T06:29:13;21.30;77.50
45969;DHT22;31676;40.444;-3.668;2023-01-16T06:31:39;21.30;77.60
45969;DHT22;31676;40.444;-3.668;2023-01-16T06:34:05;21.20;77.50
45969;DHT22;31676;40.444;-3.668;2023-01-16T06:36:30;21.20;77.50
45969;DHT22;31676;40.444;-3.668;2023-01-16T06:38:56;21.20;77.50
45969;DHT22;31676;40.444;-3.668;2023-01-16T06:41:22;21.20;77.50
45969;DHT22;31676;40.444;-3.668;2023-01-16T06:43:47;21.20;77.50
45969;DHT22;31676;40.444;-3.668;2023-01-16T06:46:13;21.20;77.50
45969;DHT22;31676;40.444;-3.668;2023-01-16T06:48:39;21.20;77.50
45969;DHT22;31676;40.444;-3.668;2023-01-16T06:51:06;21.20;77.50
45969;DHT22;31676;40.444;-3.668;2023-01-16T06:53:32;21.20;77.50
45969;DHT22;31676;40.444;-3.668;2023-01-16T06:55:58;21.20;77.50
45969;DHT22;31676;40.444;-3.668;2023-01-16T06:58:23;21.20;77.50
45969;DHT22;31676;40.444;-3.668;2023-01-16T07:00:49;21.20;77.50
45969;DHT22;31676;40.444;-3.668;2023-01-16T07:03:16;21.20;77.50
45969;DHT22;31676;40.444;-3.668;2023-01-16T07:05:43;21.20;77.50
45969;DHT22;31676;40.444;-3.668;2023-01-16T07:08:09;21.20;77.50
45969;DHT22;31676;40.444;-3.668;2023-01-16T07:10:35;21.20;77.50
45969;DHT22;31676;40.444;-3.668;2023-01-16T07:13:00;21.20;77.50
45969;DHT22;31676;40.444;-3.668;2023-01-16T07:15:26;21.20;77.50
45969;DHT22;31676;40.444;-3.668;2023-01-16T07:18:13;21.20;77.50
45969;DHT22;31676;40.444;-3.668;2023-01-16T07:20:59;21.20;77.50
45969;DHT22;31676;40.444;-3.668;2023-01-16T07:23:46;21.20;77.50
45969;DHT22;31676;40.444;-3.668;2023-01-16T07:26:13;21.20;77.50
45969;DHT22;31676;40.444;-3.668;2023-01-16T07:28:39;21.20;77.50
45969;DHT22;31676;40.444;-3.668;2023-01-16T07:31:05;21.20;77.50
45969;DHT22;31676;40.444;-3.668;2023-01-16T07:33:32;21.20;77.50
45969;DHT22;31676;40.444;-3.668;2023-01-16T07:35:58;21.20;77.50
45969;DHT22;31676;40.444;-3.668;2023-01-16T07:38:24;21.20;77.50
45969;DHT22;31676;40.444;-3.668;2023-01-16T07:40:49;21.20;77.50
45969;DHT22;31676;40.444;-3.668;2023-01-16T07:43:15;21.20;77.50
45969;DHT22;31676;40.444;-3.668;2023-01-16T07:45:41;21.20;77.50
45969;DHT22;31676;40.444;-3.668;2023-01-16T07:48:07;21.10;77.50
45969;DHT22;31676;40.444;-3.668;2023-01-16T07:50:32;21.20;77.50
45969;DHT22;31676;40.444;-3.668;2023-01-16T07:52:58;21.10;77.50
45969;DHT22;31676;40.444;-3.668;2023-01-16T07:55:24;21.20;77.50
45969;DHT22;31676;40.444;-3.668;2023-01-16T07:57:50;21.10;77.50
45969;DHT22;31676;40.444;-3.668;2023-01-16T08:00:15;21.20;77.50
45969;DHT22;31676;40.444;-3.668;2023-01-16T08:02:41;21.20;77.50
45969;DHT22;31676;40.444;-3.668;2023-01-16T08:05:08;21.20;77.50
45969;DHT22;31676;40.444;-3.668;2023-01-16T08:07:34;21.20;77.60
45969;DHT22;31676;40.444;-3.668;2023-01-16T08:09:59;21.20;77.50
45969;DHT22;31676;40.444;-3.668;2023-01-16T08:12:25;21.20;77.50
45969;DHT22;31676;40.444;-3.668;2023-01-16T08:14:51;21.10;77.50
45969;DHT22;31676;40.444;-3.668;2023-01-16T08:17:16;21.20;77.60
45969;DHT22;31676;40.444;-3.668;2023-01-16T08:19:42;21.10;77.50
45969;DHT22;31676;40.444;-3.668;2023-01-16T08:22:08;21.10;77.50
45969;DHT22;31676;40.444;-3.668;2023-01-16T08:24:33;21.10;77.50
45969;DHT22;31676;40.444;-3.668;2023-01-16T08:26:59;21.20;77.50
45969;DHT22;31676;40.444;-3.668;2023-01-16T08:29:25;21.10;77.50
45969;DHT22;31676;40.444;-3.668;2023-01-16T08:31:51;21.20;77.50
45969;DHT22;31676;40.444;-3.668;2023-01-16T08:34:16;21.10;77.50
45969;DHT22;31676;40.444;-3.668;2023-01-16T08:36:42;21.10;77.50
45969;DHT22;31676;40.444;-3.668;2023-01-16T08:39:08;21.10;77.50
45969;DHT22;31676;40.444;-3.668;2023-01-16T08:41:34;21.10;77.50
45969;DHT22;31676;40.444;-3.668;2023-01-16T08:44:18;21.10;77.40
45969;DHT22;31676;40.444;-3.668;2023-01-16T08:47:04;21.10;77.50
45969;DHT22;31676;40.444;-3.668;2023-01-16T08:49:49;21.10;77.40
45969;DHT22;31676;40.444;-3.668;2023-01-16T08:52:34;21.10;77.40
45969;DHT22;31676;40.444;-3.668;2023-01-16T08:55:02;21.20;77.50
45969;DHT22;31676;40.444;-3.668;2023-01-16T08:57:28;21.10;77.40
45969;DHT22;31676;40.444;-3.668;2023-01-16T08:59:55;21.20;77.50
45969;DHT22;31676;40.444;-3.668;2023-01-16T09:02:20;21.20;77.50
45969;DHT22;31676;40.444;-3.668;2023-01-16T09:04:46;21.20;77.50
45969;DHT22;31676;40.444;-3.668;2023-01-16T09:07:13;21.20;77.40
45969;DHT22;31676;40.444;-3.668;2023-01-16T09:09:39;21.20;77.40
45969;DHT22;31676;40.444;-3.668;2023-01-16T09:12:07;21.20;77.40
45969;DHT22;31676;40.444;-3.668;2023-01-16T09:14:51;21.20;77.40
45969;DHT22;31676;40.444;-3.668;2023-01-16T09:17:17;21.20;77.40
45969;DHT22;31676;40.444;-3.668;2023-01-16T09:19:42;21.20;77.40
45969;DHT22;31676;40.444;-3.668;2023-01-16T09:22:08;21.20;77.40
45969;DHT22;31676;40.444;-3.668;2023-01-16T09:24:34;21.20;77.40
45969;DHT22;31676;40.444;-3.668;2023-01-16T09:27:01;21.20;77.30
45969;DHT22;31676;40.444;-3.668;2023-01-16T09:29:27;21.20;77.30
45969;DHT22;31676;40.444;-3.668;2023-01-16T09:31:53;21.20;77.30
45969;DHT22;31676;40.444;-3.668;2023-01-16T09:34:18;21.20;77.40
45969;DHT22;31676;40.444;-3.668;2023-01-16T09:36:44;21.20;77.30
45969;DHT22;31676;40.444;-3.668;2023-01-16T09:39:10;21.20;77.30
45969;DHT22;31676;40.444;-3.668;2023-01-16T09:41:39;21.20;77.30
45969;DHT22;31676;40.444;-3.668;2023-01-16T09:44:25;21.20;77.30
45969;DHT22;31676;40.444;-3.668;2023-01-16T09:46:51;21.20;77.30
45969;DHT22;31676;40.444;-3.668;2023-01-16T09:51:44;21.20;77.30
45969;DHT22;31676;40.444;-3.668;2023-01-16T09:54:32;21.20;77.30
45969;DHT22;31676;40.444;-3.668;2023-01-16T09:57:19;21.20;77.30
45969;DHT22;31676;40.444;-3.668;2023-01-16T10:00:04;21.30;77.30
45969;DHT22;31676;40.444;-3.668;2023-01-16T10:02:31;21.30;77.30
45969;DHT22;31676;40.444;-3.668;2023-01-16T10:04:58;21.20;77.30
45969;DHT22;31676;40.444;-3.668;2023-01-16T10:07:32;21.20;77.20
45969;DHT22;31676;40.444;-3.668;2023-01-16T10:13:34;21.30;77.30
45969;DHT22;31676;40.444;-3.668;2023-01-16T10:25:26;21.30;77.30
45969;DHT22;31676;40.444;-3.668;2023-01-16T10:30:29;21.30;77.30
45969;DHT22;31676;40.444;-3.668;2023-01-16T10:35:26;21.30;77.30
45969;DHT22;31676;40.444;-3.668;2023-01-16T10:37:54;21.30;77.20
45969;DHT22;31676;40.444;-3.668;2023-01-16T10:40:23;21.30;77.20
45969;DHT22;31676;40.444;-3.668;2023-01-16T10:42:58;21.30;77.20
45969;DHT22;31676;40.444;-3.668;2023-01-16T10:45:44;21.30;77.20
45969;DHT22;31676;40.444;-3.668;2023-01-16T10:48:28;21.40;77.20
45969;DHT22;31676;40.444;-3.668;2023-01-16T10:51:13;21.40;77.30
45969;DHT22;31676;40.444;-3.668;2023-01-16T10:53:39;21.30;77.20
45969;DHT22;31676;40.444;-3.668;2023-01-16T10:56:04;21.40;77.20
45969;DHT22;31676;40.444;-3.668;2023-01-16T10:58:37;21.40;77.20
45969;DHT22;31676;40.444;-3.668;2023-01-16T11:01:08;21.50;77.30
45969;DHT22;31676;40.444;-3.668;2023-01-16T11:08:32;21.40;77.20
45969;DHT22;31676;40.444;-3.668;2023-01-16T11:10:58;21.40;77.10
45969;DHT22;31676;40.444;-3.668;2023-01-16T11:13:24;21.40;77.10
45969;DHT22;31676;40.444;-3.668;2023-01-16T11:18:57;21.40;77.10
45969;DHT22;31676;40.444;-3.668;2023-01-16T11:21:27;21.40;77.10
45969;DHT22;31676;40.444;-3.668;2023-01-16T11:24:00;21.40;77.10
45969;DHT22;31676;40.444;-3.668;2023-01-16T11:26:26;21.50;77.20
45969;DHT22;31676;40.444;-3.668;2023-01-16T11:28:53;21.40;77.10
45969;DHT22;31676;40.444;-3.668;2023-01-16T11:31:20;21.50;77.20
45969;DHT22;31676;40.444;-3.668;2023-01-16T11:33:47;21.50;77.20
45969;DHT22;31676;40.444;-3.668;2023-01-16T11:36:19;21.50;77.10
45969;DHT22;31676;40.444;-3.668;2023-01-16T11:38:46;21.50;77.10
45969;DHT22;31676;40.444;-3.668;2023-01-16T11:41:13;21.50;77.10
45969;DHT22;31676;40.444;-3.668;2023-01-16T11:43:42;21.50;77.10
45969;DHT22;31676;40.444;-3.668;2023-01-16T11:48:52;21.50;77.10
45969;DHT22;31676;40.444;-3.668;2023-01-16T11:51:20;21.50;77.10
45969;DHT22;31676;40.444;-3.668;2023-01-16T11:53:47;21.50;77.10
45969;DHT22;31676;40.444;-3.668;2023-01-16T12:05:07;21.60;77.10
45969;DHT22;31676;40.444;-3.668;2023-01-16T12:07:50;21.60;77.10
45969;DHT22;31676;40.444;-3.668;2023-01-16T12:10:21;21.60;77.10
45969;DHT22;31676;40.444;-3.668;2023-01-16T12:12:56;21.60;77.10
45969;DHT22;31676;40.444;-3.668;2023-01-16T12:36:35;21.70;77.00
45969;DHT22;31676;40.444;-3.668;2023-01-16T12:41:44;21.70;77.00
45969;DHT22;31676;40.444;-3.668;2023-01-16T12:49:37;21.80;77.00
45969;DHT22;31676;40.444;-3.668;2023-01-16T12:59:34;21.80;76.90
45969;DHT22;31676;40.444;-3.668;2023-01-16T13:02:02;21.80;76.90
45969;DHT22;31676;40.444;-3.668;2023-01-16T13:04:54;21.80;76.90
45969;DHT22;31676;40.444;-3.668;2023-01-16T13:07:21;21.80;76.90
45969;DHT22;31676;40.444;-3.668;2023-01-16T13:12:45;21.80;76.90
45969;DHT22;31676;40.444;-3.668;2023-01-16T13:15:31;21.80;76.80
45969;DHT22;31676;40.444;-3.668;2023-01-16T13:18:03;21.80;76.90
45969;DHT22;31676;40.444;-3.668;2023-01-16T13:20:30;21.80;76.80
45969;DHT22;31676;40.444;-3.668;2023-01-16T13:23:16;21.80;76.80
45969;DHT22;31676;40.444;-3.668;2023-01-16T13:25:43;21.90;76.90
45969;DHT22;31676;40.444;-3.668;2023-01-16T13:30:52;21.90;76.80
45969;DHT22;31676;40.444;-3.668;2023-01-16T13:33:18;21.90;76.80
45969;DHT22;31676;40.444;-3.668;2023-01-16T13:41:14;21.90;76.80
45969;DHT22;31676;40.444;-3.668;2023-01-16T13:43:51;21.90;76.80
45969;DHT22;31676;40.444;-3.668;2023-01-16T13:46:37;21.90;76.80
45969;DHT22;31676;40.444;-3.668;2023-01-16T13:49:04;21.90;76.80
45969;DHT22;31676;40.444;-3.668;2023-01-16T13:51:31;21.90;76.80
45969;DHT22;31676;40.444;-3.668;2023-01-16T13:54:07;21.90;76.70
45969;DHT22;31676;40.444;-3.668;2023-01-16T13:56:37;21.90;76.80
45969;DHT22;31676;40.444;-3.668;2023-01-16T13:59:07;21.90;76.70
45969;DHT22;31676;40.444;-3.668;2023-01-16T14:06:44;21.90;76.70
45969;DHT22;31676;40.444;-3.668;2023-01-16T14:09:19;21.90;76.70
45969;DHT22;31676;40.444;-3.668;2023-01-16T14:14:27;21.90;76.70
45969;DHT22;31676;40.444;-3.668;2023-01-16T14:17:12;21.90;76.70
45969;DHT22;31676;40.444;-3.668;2023-01-16T14:19:41;21.90;76.70
45969;DHT22;31676;40.444;-3.668;2023-01-16T14:22:11;22.00;76.80
45969;DHT22;31676;40.444;-3.668;2023-01-16T14:24:39;21.90;76.70
45969;DHT22;31676;40.444;-3.668;2023-01-16T14:27:09;22.00;76.70
45969;DHT22;31676;40.444;-3.668;2023-01-16T14:29:43;22.00;76.70
45969;DHT22;31676;40.444;-3.668;2023-01-16T14:39:55;22.00;76.70
45969;DHT22;31676;40.444;-3.668;2023-01-16T14:43:07;22.00;76.70
45969;DHT22;31676;40.444;-3.668;2023-01-16T14:45:30;22.00;76.70
45969;DHT22;31676;40.444;-3.668;2023-01-16T14:54:07;22.00;76.70
45969;DHT22;31676;40.444;-3.668;2023-01-16T14:56:57;22.00;76.70
45969;DHT22;31676;40.444;-3.668;2023-01-16T14:59:31;22.00;76.70
45969;DHT22;31676;40.444;-3.668;2023-01-16T15:04:55;22.00;76.60
45969;DHT22;31676;40.444;-3.668;2023-01-16T15:09:58;22.00;76.60
45969;DHT22;31676;40.444;-3.668;2023-01-16T15:12:34;22.00;76.60
45969;DHT22;31676;40.444;-3.668;2023-01-16T15:15:00;22.00;76.60
45969;DHT22;31676;40.444;-3.668;2023-01-16T15:17:27;22.00;76.70
45969;DHT22;31676;40.444;-3.668;2023-01-16T15:22:57;22.00;76.70
45969;DHT22;31676;40.444;-3.668;2023-01-16T15:31:10;22.00;76.60
45969;DHT22;31676;40.444;-3.668;2023-01-16T15:33:38;22.00;76.60
45969;DHT22;31676;40.444;-3.668;2023-01-16T15:36:55;22.10;76.70
45969;DHT22;31676;40.444;-3.668;2023-01-16T15:38:56;22.00;76.60
45969;DHT22;31676;40.444;-3.668;2023-01-16T15:41:24;22.00;76.60
45969;DHT22;31676;40.444;-3.668;2023-01-16T15:44:11;22.00;76.60
45969;DHT22;31676;40.444;-3.668;2023-01-16T15:47:02;22.00;76.60
45969;DHT22;31676;40.444;-3.668;2023-01-16T15:49:54;22.00;76.60
45969;DHT22;31676;40.444;-3.668;2023-01-16T15:52:17;22.00;76.70
45969;DHT22;31676;40.444;-3.668;2023-01-16T15:54:43;22.00;76.60
45969;DHT22;31676;40.444;-3.668;2023-01-16T15:57:15;22.00;76.70
45969;DHT22;31676;40.444;-3.668;2023-01-16T15:59:50;22.10;76.70
45969;DHT22;31676;40.444;-3.668;2023-01-16T16:04:49;22.00;76.70
45969;DHT22;31676;40.444;-3.668;2023-01-16T16:07:16;22.00;76.70
45969;DHT22;31676;40.444;-3.668;2023-01-16T16:09:42;22.00;76.70
45969;DHT22;31676;40.444;-3.668;2023-01-16T16:12:09;22.00;76.70
45969;DHT22;31676;40.444;-3.668;2023-01-16T16:14:35;22.00;77.30
45969;DHT22;31676;40.444;-3.668;2023-01-16T16:17:22;22.10;76.80
45969;DHT22;31676;40.444;-3.668;2023-01-16T16:20:26;22.10;76.80
45969;DHT22;31676;40.444;-3.668;2023-01-16T16:22:53;22.10;76.80
45969;DHT22;31676;40.444;-3.668;2023-01-16T16:27:57;22.10;76.80
45969;DHT22;31676;40.444;-3.668;2023-01-16T16:30:24;22.00;76.80
45969;DHT22;31676;40.444;-3.668;2023-01-16T16:32:50;22.00;76.80
45969;DHT22;31676;40.444;-3.668;2023-01-16T16:35:20;22.00;76.80
45969;DHT22;31676;40.444;-3.668;2023-01-16T16:37:47;22.00;76.80
45969;DHT22;31676;40.444;-3.668;2023-01-16T16:40:14;22.00;76.80
45969;DHT22;31676;40.444;-3.668;2023-01-16T16:42:53;22.00;76.80
45969;DHT22;31676;40.444;-3.668;2023-01-16T16:45:20;22.00;76.80
45969;DHT22;31676;40.444;-3.668;2023-01-16T16:47:46;22.00;76.80
45969;DHT22;31676;40.444;-3.668;2023-01-16T16:50:29;22.10;76.90
45969;DHT22;31676;40.444;-3.668;2023-01-16T16:55:37;22.00;76.80
45969;DHT22;31676;40.444;-3.668;2023-01-16T16:58:05;22.00;76.80
45969;DHT22;31676;40.444;-3.668;2023-01-16T17:00:31;22.00;76.90
45969;DHT22;31676;40.444;-3.668;2023-01-16T17:03:41;22.00;76.90
45969;DHT22;31676;40.444;-3.668;2023-01-16T17:05:47;22.00;76.90
45969;DHT22;31676;40.444;-3.668;2023-01-16T17:08:15;22.00;76.90
45969;DHT22;31676;40.444;-3.668;2023-01-16T17:10:42;22.00;76.90
45969;DHT22;31676;40.444;-3.668;2023-01-16T17:13:10;22.00;76.90
45969;DHT22;31676;40.444;-3.668;2023-01-16T17:15:36;22.00;76.90
45969;DHT22;31676;40.444;-3.668;2023-01-16T17:18:02;22.00;76.90
45969;DHT22;31676;40.444;-3.668;2023-01-16T17:20:27;22.00;76.90
45969;DHT22;31676;40.444;-3.668;2023-01-16T17:22:53;22.00;76.90
45969;DHT22;31676;40.444;-3.668;2023-01-16T17:25:20;22.00;76.90
45969;DHT22;31676;40.444;-3.668;2023-01-16T17:27:47;22.00;76.90
45969;DHT22;31676;40.444;-3.668;2023-01-16T17:30:14;22.00;77.00
45969;DHT22;31676;40.444;-3.668;2023-01-16T17:32:40;22.00;77.00
45969;DHT22;31676;40.444;-3.668;2023-01-16T17:35:16;22.00;77.00
45969;DHT22;31676;40.444;-3.668;2023-01-16T17:37:41;22.00;77.00
45969;DHT22;31676;40.444;-3.668;2023-01-16T17:40:08;22.00;77.00
45969;DHT22;31676;40.444;-3.668;2023-01-16T17:42:34;22.00;77.00
45969;DHT22;31676;40.444;-3.668;2023-01-16T17:45:32;22.00;77.00
45969;DHT22;31676;40.444;-3.668;2023-01-16T17:48:24;22.00;77.00
45969;DHT22;31676;40.444;-3.668;2023-01-16T17:50:51;22.00;77.00
45969;DHT22;31676;40.444;-3.668;2023-01-16T17:53:18;22.00;77.00
45969;DHT22;31676;40.444;-3.668;2023-01-16T17:55:44;22.00;77.00
45969;DHT22;31676;40.444;-3.668;2023-01-16T17:58:17;22.00;77.10
45969;DHT22;31676;40.444;-3.668;2023-01-16T18:00:43;22.00;77.10
45969;DHT22;31676;40.444;-3.668;2023-01-16T18:03:09;22.00;77.10
45969;DHT22;31676;40.444;-3.668;2023-01-16T18:05:35;21.90;77.00
45969;DHT22;31676;40.444;-3.668;2023-01-16T18:08:02;22.00;77.10
45969;DHT22;31676;40.444;-3.668;2023-01-16T18:10:28;22.00;77.10
45969;DHT22;31676;40.444;-3.668;2023-01-16T18:12:53;21.90;77.00
45969;DHT22;31676;40.444;-3.668;2023-01-16T18:15:37;21.90;77.10
45969;DHT22;31676;40.444;-3.668;2023-01-16T18:18:22;22.00;77.10
45969;DHT22;31676;40.444;-3.668;2023-01-16T18:20:47;21.90;77.10
45969;DHT22;31676;40.444;-3.668;2023-01-16T18:23:33;22.00;77.20
45969;DHT22;31676;40.444;-3.668;2023-01-16T18:25:59;22.00;77.20
45969;DHT22;31676;40.444;-3.668;2023-01-16T18:28:24;21.90;77.10